Roche Harbor, Washington
Current Conditions -  °F | °C
As of 12:53 AM on Friday 24 Oct 2014 (Local Time) from KFHR Reporting Station
Overcast Overcast  
Wind Chill: 10°   Ceiling: 1500
Heat Index: 10°   Visibility: 10mi
Dew Point:   Wind: 6mph
Humidity: 86%   Direction: 40°NE
Pressure: 30.01"   Gusts: NA
Location:  48.5377°N, 123.083°W
Report Text: KFHR 240753Z AUTO 04005KT 10SM OVC015 10/08 A3001 RMK AO2 SLP162 T01000078 401440056
Loading
Personal Weather Stations






























Interactive Weather Map
Tropical Storm Tracking
New forecast layout! Learn more

10-Day Weather Forecast

Advertisements
Track Severe Weather on mobile